sensor_id;sensor_type;location;lat;lon;timestamp;P1;durP1;ratioP1;P2;durP2;ratioP2
26965;SDS011;14522;52.068;4.414;2024-02-04T00:01:55;18.42;;;4.03;;
26965;SDS011;14522;52.068;4.414;2024-02-04T00:04:22;18.48;;;3.47;;
26965;SDS011;14522;52.068;4.414;2024-02-04T00:06:50;18.83;;;3.88;;
26965;SDS011;14522;52.068;4.414;2024-02-04T00:09:16;20.50;;;3.85;;
26965;SDS011;14522;52.068;4.414;2024-02-04T00:11:45;14.70;;;3.42;;
26965;SDS011;14522;52.068;4.414;2024-02-04T00:14:11;15.07;;;3.85;;
26965;SDS011;14522;52.068;4.414;2024-02-04T00:16:38;14.82;;;3.10;;
26965;SDS011;14522;52.068;4.414;2024-02-04T00:19:04;12.43;;;3.90;;
26965;SDS011;14522;52.068;4.414;2024-02-04T00:21:31;15.55;;;4.00;;
26965;SDS011;14522;52.068;4.414;2024-02-04T00:23:57;15.40;;;3.80;;
26965;SDS011;14522;52.068;4.414;2024-02-04T00:26:24;13.38;;;3.70;;
26965;SDS011;14522;52.068;4.414;2024-02-04T00:28:50;15.57;;;3.33;;
26965;SDS011;14522;52.068;4.414;2024-02-04T00:31:17;8.68;;;2.42;;
26965;SDS011;14522;52.068;4.414;2024-02-04T00:33:43;22.13;;;3.78;;
26965;SDS011;14522;52.068;4.414;2024-02-04T00:36:10;14.88;;;3.80;;
26965;SDS011;14522;52.068;4.414;2024-02-04T00:38:36;14.07;;;3.28;;
26965;SDS011;14522;52.068;4.414;2024-02-04T00:41:03;11.13;;;3.28;;
26965;SDS011;14522;52.068;4.414;2024-02-04T00:43:30;9.73;;;2.70;;
26965;SDS011;14522;52.068;4.414;2024-02-04T00:45:56;15.15;;;3.45;;
26965;SDS011;14522;52.068;4.414;2024-02-04T00:48:23;7.65;;;2.80;;
26965;SDS011;14522;52.068;4.414;2024-02-04T00:50:49;17.83;;;4.30;;
26965;SDS011;14522;52.068;4.414;2024-02-04T00:53:16;13.73;;;3.70;;
26965;SDS011;14522;52.068;4.414;2024-02-04T00:55:42;13.60;;;3.40;;
26965;SDS011;14522;52.068;4.414;2024-02-04T00:58:09;11.30;;;3.22;;
26965;SDS011;14522;52.068;4.414;2024-02-04T01:00:35;11.73;;;2.97;;
26965;SDS011;14522;52.068;4.414;2024-02-04T01:03:02;14.02;;;3.78;;
26965;SDS011;14522;52.068;4.414;2024-02-04T01:05:28;15.57;;;3.08;;
26965;SDS011;14522;52.068;4.414;2024-02-04T01:07:55;15.95;;;3.88;;
26965;SDS011;14522;52.068;4.414;2024-02-04T01:10:21;16.13;;;3.63;;
26965;SDS011;14522;52.068;4.414;2024-02-04T01:12:47;11.55;;;3.28;;
26965;SDS011;14522;52.068;4.414;2024-02-04T01:15:15;11.23;;;3.08;;
26965;SDS011;14522;52.068;4.414;2024-02-04T01:17:41;11.30;;;2.55;;
26965;SDS011;14522;52.068;4.414;2024-02-04T01:20:08;6.55;;;2.13;;
26965;SDS011;14522;52.068;4.414;2024-02-04T01:22:35;10.00;;;3.10;;
26965;SDS011;14522;52.068;4.414;2024-02-04T01:25:01;17.63;;;3.85;;
26965;SDS011;14522;52.068;4.414;2024-02-04T01:27:28;17.15;;;3.60;;
26965;SDS011;14522;52.068;4.414;2024-02-04T01:29:54;19.33;;;3.97;;
26965;SDS011;14522;52.068;4.414;2024-02-04T01:32:22;18.27;;;3.50;;
26965;SDS011;14522;52.068;4.414;2024-02-04T01:34:49;13.48;;;3.28;;
26965;SDS011;14522;52.068;4.414;2024-02-04T01:37:15;15.48;;;4.07;;
26965;SDS011;14522;52.068;4.414;2024-02-04T01:39:42;21.17;;;4.05;;
26965;SDS011;14522;52.068;4.414;2024-02-04T01:42:08;7.10;;;2.85;;
26965;SDS011;14522;52.068;4.414;2024-02-04T01:44:35;15.50;;;2.92;;
26965;SDS011;14522;52.068;4.414;2024-02-04T01:47:02;14.63;;;3.72;;
26965;SDS011;14522;52.068;4.414;2024-02-04T01:49:29;19.52;;;4.25;;
26965;SDS011;14522;52.068;4.414;2024-02-04T01:51:56;13.18;;;2.95;;
26965;SDS011;14522;52.068;4.414;2024-02-04T01:54:23;15.52;;;3.65;;
26965;SDS011;14522;52.068;4.414;2024-02-04T01:56:50;9.63;;;3.30;;
26965;SDS011;14522;52.068;4.414;2024-02-04T01:59:18;12.18;;;2.83;;
26965;SDS011;14522;52.068;4.414;2024-02-04T02:01:46;15.32;;;3.47;;
26965;SDS011;14522;52.068;4.414;2024-02-04T02:04:13;12.13;;;3.35;;
26965;SDS011;14522;52.068;4.414;2024-02-04T02:06:39;15.52;;;3.53;;
26965;SDS011;14522;52.068;4.414;2024-02-04T02:09:09;15.80;;;3.47;;
26965;SDS011;14522;52.068;4.414;2024-02-04T02:11:43;12.15;;;2.85;;
26965;SDS011;14522;52.068;4.414;2024-02-04T02:14:13;13.63;;;2.63;;
26965;SDS011;14522;52.068;4.414;2024-02-04T02:16:41;12.48;;;2.70;;
26965;SDS011;14522;52.068;4.414;2024-02-04T02:22:00;11.35;;;2.10;;
26965;SDS011;14522;52.068;4.414;2024-02-04T02:24:32;12.52;;;3.15;;
26965;SDS011;14522;52.068;4.414;2024-02-04T02:26:59;8.80;;;2.50;;
26965;SDS011;14522;52.068;4.414;2024-02-04T02:29:25;12.27;;;3.35;;
26965;SDS011;14522;52.068;4.414;2024-02-04T02:31:52;12.75;;;2.70;;
26965;SDS011;14522;52.068;4.414;2024-02-04T02:34:18;14.05;;;3.20;;
26965;SDS011;14522;52.068;4.414;2024-02-04T02:39:40;10.00;;;2.90;;
26965;SDS011;14522;52.068;4.414;2024-02-04T02:42:08;10.57;;;2.67;;
26965;SDS011;14522;52.068;4.414;2024-02-04T02:44:35;12.40;;;2.35;;
26965;SDS011;14522;52.068;4.414;2024-02-04T02:47:03;19.85;;;5.00;;
26965;SDS011;14522;52.068;4.414;2024-02-04T02:49:31;14.32;;;2.85;;
26965;SDS011;14522;52.068;4.414;2024-02-04T02:51:57;13.38;;;2.88;;
26965;SDS011;14522;52.068;4.414;2024-02-04T02:54:24;12.32;;;2.88;;
26965;SDS011;14522;52.068;4.414;2024-02-04T02:56:51;14.27;;;3.38;;
26965;SDS011;14522;52.068;4.414;2024-02-04T02:59:17;12.10;;;3.33;;
26965;SDS011;14522;52.068;4.414;2024-02-04T03:01:43;13.98;;;2.97;;
26965;SDS011;14522;52.068;4.414;2024-02-04T03:04:10;9.65;;;2.83;;
26965;SDS011;14522;52.068;4.414;2024-02-04T03:06:37;12.32;;;3.70;;
26965;SDS011;14522;52.068;4.414;2024-02-04T03:09:03;12.15;;;3.25;;
26965;SDS011;14522;52.068;4.414;2024-02-04T03:11:30;11.70;;;3.42;;
26965;SDS011;14522;52.068;4.414;2024-02-04T03:13:56;17.35;;;3.45;;
26965;SDS011;14522;52.068;4.414;2024-02-04T03:16:22;8.25;;;1.88;;
26965;SDS011;14522;52.068;4.414;2024-02-04T03:18:49;11.13;;;2.30;;
26965;SDS011;14522;52.068;4.414;2024-02-04T03:21:16;8.70;;;2.30;;
26965;SDS011;14522;52.068;4.414;2024-02-04T03:23:42;14.20;;;2.70;;
26965;SDS011;14522;52.068;4.414;2024-02-04T03:26:16;8.55;;;2.47;;
26965;SDS011;14522;52.068;4.414;2024-02-04T03:28:42;14.02;;;3.17;;
26965;SDS011;14522;52.068;4.414;2024-02-04T03:31:08;13.23;;;3.10;;
26965;SDS011;14522;52.068;4.414;2024-02-04T03:33:35;15.48;;;3.53;;
26965;SDS011;14522;52.068;4.414;2024-02-04T03:36:01;13.43;;;2.97;;
26965;SDS011;14522;52.068;4.414;2024-02-04T03:38:28;11.60;;;2.63;;
26965;SDS011;14522;52.068;4.414;2024-02-04T03:40:54;10.65;;;2.47;;
26965;SDS011;14522;52.068;4.414;2024-02-04T03:43:21;14.82;;;3.38;;
26965;SDS011;14522;52.068;4.414;2024-02-04T03:45:47;16.63;;;2.60;;
26965;SDS011;14522;52.068;4.414;2024-02-04T03:48:14;15.98;;;3.75;;
26965;SDS011;14522;52.068;4.414;2024-02-04T03:50:40;20.77;;;2.75;;
26965;SDS011;14522;52.068;4.414;2024-02-04T03:53:07;16.98;;;3.20;;
26965;SDS011;14522;52.068;4.414;2024-02-04T03:55:34;13.70;;;3.22;;
26965;SDS011;14522;52.068;4.414;2024-02-04T03:58:00;10.15;;;2.17;;
26965;SDS011;14522;52.068;4.414;2024-02-04T04:00:27;15.73;;;1.92;;
26965;SDS011;14522;52.068;4.414;2024-02-04T04:02:53;13.20;;;2.78;;
26965;SDS011;14522;52.068;4.414;2024-02-04T04:05:20;16.20;;;3.92;;
26965;SDS011;14522;52.068;4.414;2024-02-04T04:07:46;13.73;;;2.25;;
26965;SDS011;14522;52.068;4.414;2024-02-04T04:10:13;17.40;;;3.40;;
26965;SDS011;14522;52.068;4.414;2024-02-04T04:12:39;10.30;;;2.30;;
26965;SDS011;14522;52.068;4.414;2024-02-04T04:15:06;11.27;;;2.38;;
26965;SDS011;14522;52.068;4.414;2024-02-04T04:17:32;13.70;;;2.53;;
26965;SDS011;14522;52.068;4.414;2024-02-04T04:19:59;16.15;;;3.03;;
26965;SDS011;14522;52.068;4.414;2024-02-04T04:22:25;11.20;;;2.10;;
26965;SDS011;14522;52.068;4.414;2024-02-04T04:24:52;19.65;;;3.10;;
26965;SDS011;14522;52.068;4.414;2024-02-04T04:27:18;12.88;;;2.25;;
26965;SDS011;14522;52.068;4.414;2024-02-04T04:29:45;15.32;;;3.20;;
26965;SDS011;14522;52.068;4.414;2024-02-04T04:32:11;15.23;;;3.72;;
26965;SDS011;14522;52.068;4.414;2024-02-04T04:34:37;10.48;;;1.90;;
26965;SDS011;14522;52.068;4.414;2024-02-04T04:37:04;12.07;;;2.70;;
26965;SDS011;14522;52.068;4.414;2024-02-04T04:39:30;18.90;;;3.90;;
26965;SDS011;14522;52.068;4.414;2024-02-04T04:41:57;18.38;;;4.07;;
26965;SDS011;14522;52.068;4.414;2024-02-04T04:44:23;24.10;;;4.13;;
26965;SDS011;14522;52.068;4.414;2024-02-04T04:46:50;27.50;;;4.20;;
26965;SDS011;14522;52.068;4.414;2024-02-04T04:49:16;19.63;;;3.33;;
26965;SDS011;14522;52.068;4.414;2024-02-04T04:51:46;17.80;;;3.70;;
26965;SDS011;14522;52.068;4.414;2024-02-04T04:54:12;15.52;;;3.60;;
26965;SDS011;14522;52.068;4.414;2024-02-04T04:56:39;24.88;;;4.32;;
26965;SDS011;14522;52.068;4.414;2024-02-04T04:59:08;17.15;;;3.03;;
26965;SDS011;14522;52.068;4.414;2024-02-04T05:01:35;15.77;;;3.92;;
26965;SDS011;14522;52.068;4.414;2024-02-04T05:04:01;15.25;;;3.35;;
26965;SDS011;14522;52.068;4.414;2024-02-04T05:06:28;14.70;;;3.47;;
26965;SDS011;14522;52.068;4.414;2024-02-04T05:08:55;12.68;;;2.80;;
26965;SDS011;14522;52.068;4.414;2024-02-04T05:11:21;11.48;;;3.50;;
26965;SDS011;14522;52.068;4.414;2024-02-04T05:13:47;15.70;;;4.20;;
26965;SDS011;14522;52.068;4.414;2024-02-04T05:16:14;22.40;;;3.20;;
26965;SDS011;14522;52.068;4.414;2024-02-04T05:18:40;9.68;;;2.40;;
26965;SDS011;14522;52.068;4.414;2024-02-04T05:21:07;10.52;;;2.47;;
26965;SDS011;14522;52.068;4.414;2024-02-04T05:23:33;10.52;;;3.45;;
26965;SDS011;14522;52.068;4.414;2024-02-04T05:26:03;15.40;;;3.78;;
26965;SDS011;14522;52.068;4.414;2024-02-04T05:28:31;15.13;;;3.95;;
26965;SDS011;14522;52.068;4.414;2024-02-04T05:30:57;14.05;;;2.80;;
26965;SDS011;14522;52.068;4.414;2024-02-04T05:33:24;14.77;;;3.45;;
26965;SDS011;14522;52.068;4.414;2024-02-04T05:35:51;9.48;;;2.58;;
26965;SDS011;14522;52.068;4.414;2024-02-04T05:38:17;12.68;;;3.13;;
26965;SDS011;14522;52.068;4.414;2024-02-04T05:40:43;19.75;;;3.63;;
26965;SDS011;14522;52.068;4.414;2024-02-04T05:43:10;13.02;;;3.15;;
26965;SDS011;14522;52.068;4.414;2024-02-04T05:45:38;21.65;;;4.35;;
26965;SDS011;14522;52.068;4.414;2024-02-04T05:48:07;13.75;;;3.58;;
26965;SDS011;14522;52.068;4.414;2024-02-04T05:50:34;14.80;;;2.55;;
26965;SDS011;14522;52.068;4.414;2024-02-04T05:53:00;15.48;;;2.75;;
26965;SDS011;14522;52.068;4.414;2024-02-04T05:55:27;15.48;;;3.47;;
26965;SDS011;14522;52.068;4.414;2024-02-04T05:57:53;12.52;;;2.58;;
26965;SDS011;14522;52.068;4.414;2024-02-04T06:00:20;7.95;;;2.55;;
26965;SDS011;14522;52.068;4.414;2024-02-04T06:02:47;14.52;;;2.80;;
26965;SDS011;14522;52.068;4.414;2024-02-04T06:05:13;12.90;;;2.83;;
26965;SDS011;14522;52.068;4.414;2024-02-04T06:07:42;10.55;;;2.42;;
26965;SDS011;14522;52.068;4.414;2024-02-04T06:10:08;12.43;;;2.47;;
26965;SDS011;14522;52.068;4.414;2024-02-04T06:12:35;8.35;;;2.70;;
26965;SDS011;14522;52.068;4.414;2024-02-04T06:15:01;9.18;;;2.25;;
26965;SDS011;14522;52.068;4.414;2024-02-04T06:17:28;9.13;;;2.28;;
26965;SDS011;14522;52.068;4.414;2024-02-04T06:19:54;9.07;;;1.98;;
26965;SDS011;14522;52.068;4.414;2024-02-04T06:22:21;9.38;;;1.40;;
26965;SDS011;14522;52.068;4.414;2024-02-04T06:24:48;7.20;;;1.85;;
26965;SDS011;14522;52.068;4.414;2024-02-04T06:27:16;11.70;;;1.85;;
26965;SDS011;14522;52.068;4.414;2024-02-04T06:29:42;7.45;;;1.73;;
26965;SDS011;14522;52.068;4.414;2024-02-04T06:32:09;6.25;;;1.45;;
26965;SDS011;14522;52.068;4.414;2024-02-04T06:34:35;8.68;;;2.10;;
26965;SDS011;14522;52.068;4.414;2024-02-04T06:37:03;5.13;;;1.42;;
26965;SDS011;14522;52.068;4.414;2024-02-04T06:39:30;6.75;;;1.25;;
26965;SDS011;14522;52.068;4.414;2024-02-04T06:41:56;10.25;;;2.50;;
26965;SDS011;14522;52.068;4.414;2024-02-04T06:44:23;9.48;;;1.77;;
26965;SDS011;14522;52.068;4.414;2024-02-04T06:46:49;12.10;;;1.63;;
26965;SDS011;14522;52.068;4.414;2024-02-04T06:49:15;14.07;;;2.63;;
26965;SDS011;14522;52.068;4.414;2024-02-04T06:51:45;8.40;;;2.75;;
26965;SDS011;14522;52.068;4.414;2024-02-04T06:54:11;5.18;;;1.67;;
26965;SDS011;14522;52.068;4.414;2024-02-04T06:56:38;6.90;;;1.95;;
26965;SDS011;14522;52.068;4.414;2024-02-04T06:59:04;6.95;;;2.25;;
26965;SDS011;14522;52.068;4.414;2024-02-04T07:01:32;6.82;;;2.05;;
26965;SDS011;14522;52.068;4.414;2024-02-04T07:03:58;9.10;;;1.50;;
26965;SDS011;14522;52.068;4.414;2024-02-04T07:06:25;10.13;;;1.80;;
26965;SDS011;14522;52.068;4.414;2024-02-04T07:08:51;4.20;;;1.40;;
26965;SDS011;14522;52.068;4.414;2024-02-04T07:11:17;7.25;;;1.20;;
26965;SDS011;14522;52.068;4.414;2024-02-04T07:13:44;10.90;;;1.63;;
26965;SDS011;14522;52.068;4.414;2024-02-04T07:16:10;7.03;;;2.22;;
26965;SDS011;14522;52.068;4.414;2024-02-04T07:18:37;15.18;;;2.42;;
26965;SDS011;14522;52.068;4.414;2024-02-04T07:21:03;11.35;;;2.20;;
26965;SDS011;14522;52.068;4.414;2024-02-04T07:23:30;5.05;;;2.00;;
26965;SDS011;14522;52.068;4.414;2024-02-04T07:25:57;9.02;;;1.85;;
26965;SDS011;14522;52.068;4.414;2024-02-04T07:28:23;8.30;;;1.88;;
26965;SDS011;14522;52.068;4.414;2024-02-04T07:30:50;5.63;;;1.40;;
26965;SDS011;14522;52.068;4.414;2024-02-04T07:33:16;11.27;;;2.00;;
26965;SDS011;14522;52.068;4.414;2024-02-04T07:35:43;8.50;;;1.85;;
26965;SDS011;14522;52.068;4.414;2024-02-04T07:38:09;6.78;;;1.80;;
26965;SDS011;14522;52.068;4.414;2024-02-04T07:40:35;10.48;;;1.40;;
26965;SDS011;14522;52.068;4.414;2024-02-04T07:43:02;7.80;;;1.92;;
26965;SDS011;14522;52.068;4.414;2024-02-04T07:45:28;7.10;;;1.70;;
26965;SDS011;14522;52.068;4.414;2024-02-04T07:47:55;7.50;;;2.00;;
26965;SDS011;14522;52.068;4.414;2024-02-04T07:50:21;6.30;;;1.35;;
26965;SDS011;14522;52.068;4.414;2024-02-04T07:52:48;10.82;;;1.65;;
26965;SDS011;14522;52.068;4.414;2024-02-04T07:55:15;7.55;;;1.30;;
26965;SDS011;14522;52.068;4.414;2024-02-04T07:57:41;5.90;;;1.25;;
26965;SDS011;14522;52.068;4.414;2024-02-04T08:00:08;3.95;;;1.10;;
26965;SDS011;14522;52.068;4.414;2024-02-04T08:02:37;4.90;;;1.20;;
26965;SDS011;14522;52.068;4.414;2024-02-04T08:05:06;6.78;;;0.90;;
26965;SDS011;14522;52.068;4.414;2024-02-04T08:07:33;5.82;;;1.23;;
26965;SDS011;14522;52.068;4.414;2024-02-04T08:09:59;7.45;;;1.20;;
26965;SDS011;14522;52.068;4.414;2024-02-04T08:12:26;10.27;;;1.65;;
26965;SDS011;14522;52.068;4.414;2024-02-04T08:14:52;6.72;;;1.60;;
26965;SDS011;14522;52.068;4.414;2024-02-04T08:17:19;7.97;;;1.30;;
26965;SDS011;14522;52.068;4.414;2024-02-04T08:19:45;4.20;;;0.82;;
26965;SDS011;14522;52.068;4.414;2024-02-04T08:22:12;4.45;;;1.10;;
26965;SDS011;14522;52.068;4.414;2024-02-04T08:24:39;8.73;;;1.20;;
26965;SDS011;14522;52.068;4.414;2024-02-04T08:27:06;6.82;;;1.25;;
26965;SDS011;14522;52.068;4.414;2024-02-04T08:29:32;7.47;;;0.93;;
26965;SDS011;14522;52.068;4.414;2024-02-04T08:31:59;7.50;;;0.95;;
26965;SDS011;14522;52.068;4.414;2024-02-04T08:34:25;4.38;;;1.15;;
26965;SDS011;14522;52.068;4.414;2024-02-04T08:36:52;9.65;;;1.55;;
26965;SDS011;14522;52.068;4.414;2024-02-04T08:39:18;4.13;;;0.60;;
26965;SDS011;14522;52.068;4.414;2024-02-04T08:41:45;5.18;;;1.10;;
26965;SDS011;14522;52.068;4.414;2024-02-04T08:44:12;3.22;;;1.02;;
26965;SDS011;14522;52.068;4.414;2024-02-04T08:46:52;3.67;;;0.90;;
26965;SDS011;14522;52.068;4.414;2024-02-04T08:49:18;6.03;;;0.88;;
26965;SDS011;14522;52.068;4.414;2024-02-04T08:51:45;5.47;;;0.85;;
26965;SDS011;14522;52.068;4.414;2024-02-04T08:54:11;9.38;;;1.23;;
26965;SDS011;14522;52.068;4.414;2024-02-04T08:56:38;5.07;;;0.90;;
26965;SDS011;14522;52.068;4.414;2024-02-04T08:59:05;4.55;;;1.05;;
26965;SDS011;14522;52.068;4.414;2024-02-04T09:01:32;7.13;;;1.02;;
26965;SDS011;14522;52.068;4.414;2024-02-04T09:03:58;1.95;;;0.50;;
26965;SDS011;14522;52.068;4.414;2024-02-04T09:06:25;5.10;;;1.00;;
26965;SDS011;14522;52.068;4.414;2024-02-04T09:08:52;4.40;;;0.73;;
26965;SDS011;14522;52.068;4.414;2024-02-04T09:11:18;5.18;;;0.75;;
26965;SDS011;14522;52.068;4.414;2024-02-04T09:13:45;5.07;;;0.80;;
26965;SDS011;14522;52.068;4.414;2024-02-04T09:16:12;5.53;;;0.93;;
26965;SDS011;14522;52.068;4.414;2024-02-04T09:18:38;2.38;;;0.68;;
26965;SDS011;14522;52.068;4.414;2024-02-04T09:21:05;2.20;;;0.57;;
26965;SDS011;14522;52.068;4.414;2024-02-04T09:23:31;5.93;;;1.00;;
26965;SDS011;14522;52.068;4.414;2024-02-04T09:25:58;5.40;;;0.80;;
26965;SDS011;14522;52.068;4.414;2024-02-04T09:28:24;2.97;;;0.40;;
26965;SDS011;14522;52.068;4.414;2024-02-04T09:30:51;2.65;;;0.60;;
26965;SDS011;14522;52.068;4.414;2024-02-04T09:33:18;5.05;;;0.88;;
26965;SDS011;14522;52.068;4.414;2024-02-04T09:35:45;1.92;;;0.50;;
26965;SDS011;14522;52.068;4.414;2024-02-04T09:38:12;3.03;;;0.50;;
26965;SDS011;14522;52.068;4.414;2024-02-04T09:40:40;2.17;;;0.55;;
26965;SDS011;14522;52.068;4.414;2024-02-04T09:43:06;2.35;;;0.70;;
26965;SDS011;14522;52.068;4.414;2024-02-04T09:45:33;4.75;;;0.50;;
26965;SDS011;14522;52.068;4.414;2024-02-04T09:48:01;7.57;;;1.10;;
26965;SDS011;14522;52.068;4.414;2024-02-04T09:50:28;2.67;;;0.65;;
26965;SDS011;14522;52.068;4.414;2024-02-04T09:52:55;4.90;;;1.30;;
26965;SDS011;14522;52.068;4.414;2024-02-04T09:55:24;4.15;;;1.10;;
26965;SDS011;14522;52.068;4.414;2024-02-04T09:57:51;4.80;;;1.27;;
26965;SDS011;14522;52.068;4.414;2024-02-04T10:00:18;4.40;;;0.98;;
26965;SDS011;14522;52.068;4.414;2024-02-04T10:02:45;2.30;;;0.75;;
26965;SDS011;14522;52.068;4.414;2024-02-04T10:05:14;5.30;;;1.35;;
26965;SDS011;14522;52.068;4.414;2024-02-04T10:07:41;8.32;;;1.10;;
26965;SDS011;14522;52.068;4.414;2024-02-04T10:10:08;5.53;;;1.10;;
26965;SDS011;14522;52.068;4.414;2024-02-04T10:12:34;9.60;;;1.55;;
26965;SDS011;14522;52.068;4.414;2024-02-04T10:15:02;3.65;;;0.85;;
26965;SDS011;14522;52.068;4.414;2024-02-04T10:17:32;6.90;;;1.10;;
26965;SDS011;14522;52.068;4.414;2024-02-04T10:19:59;5.03;;;0.90;;
26965;SDS011;14522;52.068;4.414;2024-02-04T10:22:26;5.35;;;0.90;;
26965;SDS011;14522;52.068;4.414;2024-02-04T10:24:54;5.05;;;1.10;;
26965;SDS011;14522;52.068;4.414;2024-02-04T10:27:20;4.53;;;1.00;;
26965;SDS011;14522;52.068;4.414;2024-02-04T10:29:57;7.22;;;0.82;;
26965;SDS011;14522;52.068;4.414;2024-02-04T10:32:24;5.05;;;0.90;;
26965;SDS011;14522;52.068;4.414;2024-02-04T10:34:51;4.32;;;0.73;;
26965;SDS011;14522;52.068;4.414;2024-02-04T10:37:17;5.20;;;1.00;;
26965;SDS011;14522;52.068;4.414;2024-02-04T10:39:44;4.45;;;0.95;;
26965;SDS011;14522;52.068;4.414;2024-02-04T10:42:10;3.97;;;0.68;;
26965;SDS011;14522;52.068;4.414;2024-02-04T10:44:39;6.00;;;1.17;;
26965;SDS011;14522;52.068;4.414;2024-02-04T10:47:11;6.15;;;1.20;;
26965;SDS011;14522;52.068;4.414;2024-02-04T10:49:45;5.40;;;1.00;;
26965;SDS011;14522;52.068;4.414;2024-02-04T10:52:16;8.50;;;1.17;;
26965;SDS011;14522;52.068;4.414;2024-02-04T10:54:44;5.93;;;1.23;;
26965;SDS011;14522;52.068;4.414;2024-02-04T10:57:12;6.13;;;1.00;;
26965;SDS011;14522;52.068;4.414;2024-02-04T10:59:39;6.90;;;1.13;;
26965;SDS011;14522;52.068;4.414;2024-02-04T11:02:05;3.85;;;0.80;;
26965;SDS011;14522;52.068;4.414;2024-02-04T11:04:33;7.15;;;1.00;;
26965;SDS011;14522;52.068;4.414;2024-02-04T11:07:01;9.75;;;1.42;;
26965;SDS011;14522;52.068;4.414;2024-02-04T11:09:27;4.80;;;0.95;;
26965;SDS011;14522;52.068;4.414;2024-02-04T11:11:58;6.68;;;1.17;;
26965;SDS011;14522;52.068;4.414;2024-02-04T11:14:25;9.38;;;1.40;;
26965;SDS011;14522;52.068;4.414;2024-02-04T11:17:12;7.97;;;1.27;;
26965;SDS011;14522;52.068;4.414;2024-02-04T11:19:47;11.13;;;1.48;;
26965;SDS011;14522;52.068;4.414;2024-02-04T11:27:29;3.85;;;0.90;;
26965;SDS011;14522;52.068;4.414;2024-02-04T11:29:55;8.00;;;1.73;;
26965;SDS011;14522;52.068;4.414;2024-02-04T11:32:23;9.15;;;1.35;;
26965;SDS011;14522;52.068;4.414;2024-02-04T11:34:50;9.80;;;1.42;;
26965;SDS011;14522;52.068;4.414;2024-02-04T11:37:17;5.22;;;1.13;;
26965;SDS011;14522;52.068;4.414;2024-02-04T11:39:52;4.82;;;1.08;;
26965;SDS011;14522;52.068;4.414;2024-02-04T11:42:19;6.38;;;1.38;;
26965;SDS011;14522;52.068;4.414;2024-02-04T11:44:46;7.90;;;1.48;;
26965;SDS011;14522;52.068;4.414;2024-02-04T11:47:25;6.45;;;1.33;;
26965;SDS011;14522;52.068;4.414;2024-02-04T11:49:58;6.18;;;1.40;;
26965;SDS011;14522;52.068;4.414;2024-02-04T11:52:28;4.45;;;1.17;;
26965;SDS011;14522;52.068;4.414;2024-02-04T11:54:55;8.13;;;1.25;;
26965;SDS011;14522;52.068;4.414;2024-02-04T11:57:22;8.15;;;1.25;;
26965;SDS011;14522;52.068;4.414;2024-02-04T11:59:49;6.75;;;1.00;;
26965;SDS011;14522;52.068;4.414;2024-02-04T12:02:16;3.30;;;0.90;;
26965;SDS011;14522;52.068;4.414;2024-02-04T12:04:47;4.57;;;1.23;;
26965;SDS011;14522;52.068;4.414;2024-02-04T12:07:14;6.90;;;1.35;;
26965;SDS011;14522;52.068;4.414;2024-02-04T12:09:41;4.97;;;1.55;;
26965;SDS011;14522;52.068;4.414;2024-02-04T12:12:07;8.40;;;1.25;;
26965;SDS011;14522;52.068;4.414;2024-02-04T12:14:35;4.32;;;1.13;;
26965;SDS011;14522;52.068;4.414;2024-02-04T12:17:08;7.07;;;1.02;;
26965;SDS011;14522;52.068;4.414;2024-02-04T12:19:38;10.43;;;1.33;;
26965;SDS011;14522;52.068;4.414;2024-02-04T12:22:10;8.63;;;1.10;;
26965;SDS011;14522;52.068;4.414;2024-02-04T12:24:37;6.90;;;1.17;;
26965;SDS011;14522;52.068;4.414;2024-02-04T12:27:04;11.05;;;1.77;;
26965;SDS011;14522;52.068;4.414;2024-02-04T12:29:30;7.93;;;0.98;;
26965;SDS011;14522;52.068;4.414;2024-02-04T12:32:01;3.50;;;0.88;;
26965;SDS011;14522;52.068;4.414;2024-02-04T12:34:27;5.07;;;1.30;;
26965;SDS011;14522;52.068;4.414;2024-02-04T12:37:00;3.75;;;0.85;;
26965;SDS011;14522;52.068;4.414;2024-02-04T12:39:27;13.32;;;2.88;;
26965;SDS011;14522;52.068;4.414;2024-02-04T12:41:54;5.72;;;1.45;;
26965;SDS011;14522;52.068;4.414;2024-02-04T12:44:21;8.55;;;1.23;;
26965;SDS011;14522;52.068;4.414;2024-02-04T12:46:51;8.88;;;1.52;;
26965;SDS011;14522;52.068;4.414;2024-02-04T12:49:21;5.95;;;1.40;;
26965;SDS011;14522;52.068;4.414;2024-02-04T12:51:51;10.00;;;1.70;;
26965;SDS011;14522;52.068;4.414;2024-02-04T12:54:22;6.38;;;1.30;;
26965;SDS011;14522;52.068;4.414;2024-02-04T12:56:50;13.10;;;1.48;;
26965;SDS011;14522;52.068;4.414;2024-02-04T12:59:24;7.40;;;1.30;;
26965;SDS011;14522;52.068;4.414;2024-02-04T13:01:54;7.07;;;1.25;;
26965;SDS011;14522;52.068;4.414;2024-02-04T13:04:21;9.50;;;1.35;;
26965;SDS011;14522;52.068;4.414;2024-02-04T13:06:48;5.55;;;1.30;;
26965;SDS011;14522;52.068;4.414;2024-02-04T13:09:15;7.20;;;1.88;;
26965;SDS011;14522;52.068;4.414;2024-02-04T13:11:42;7.72;;;1.30;;
26965;SDS011;14522;52.068;4.414;2024-02-04T13:14:09;7.22;;;1.00;;
26965;SDS011;14522;52.068;4.414;2024-02-04T13:16:37;9.75;;;1.52;;
26965;SDS011;14522;52.068;4.414;2024-02-04T13:19:04;8.50;;;1.30;;
26965;SDS011;14522;52.068;4.414;2024-02-04T13:21:30;12.43;;;1.45;;
26965;SDS011;14522;52.068;4.414;2024-02-04T13:23:57;6.53;;;0.90;;
26965;SDS011;14522;52.068;4.414;2024-02-04T13:26:23;6.40;;;0.95;;
26965;SDS011;14522;52.068;4.414;2024-02-04T13:28:50;5.35;;;1.10;;
26965;SDS011;14522;52.068;4.414;2024-02-04T13:31:16;13.77;;;1.73;;
26965;SDS011;14522;52.068;4.414;2024-02-04T13:33:43;4.82;;;1.05;;
26965;SDS011;14522;52.068;4.414;2024-02-04T13:36:09;6.35;;;1.05;;
26965;SDS011;14522;52.068;4.414;2024-02-04T13:38:36;9.27;;;1.45;;
26965;SDS011;14522;52.068;4.414;2024-02-04T13:41:03;9.52;;;2.08;;
26965;SDS011;14522;52.068;4.414;2024-02-04T13:43:34;10.38;;;1.42;;
26965;SDS011;14522;52.068;4.414;2024-02-04T13:46:00;9.23;;;1.45;;
26965;SDS011;14522;52.068;4.414;2024-02-04T13:48:28;7.57;;;1.85;;
26965;SDS011;14522;52.068;4.414;2024-02-04T13:50:55;5.07;;;1.15;;
26965;SDS011;14522;52.068;4.414;2024-02-04T13:53:21;7.68;;;1.48;;
26965;SDS011;14522;52.068;4.414;2024-02-04T13:55:49;9.68;;;1.83;;
26965;SDS011;14522;52.068;4.414;2024-02-04T13:58:15;9.57;;;1.63;;
26965;SDS011;14522;52.068;4.414;2024-02-04T14:00:44;11.48;;;1.40;;
26965;SDS011;14522;52.068;4.414;2024-02-04T14:03:11;10.25;;;1.67;;
26965;SDS011;14522;52.068;4.414;2024-02-04T14:05:39;8.43;;;1.80;;
26965;SDS011;14522;52.068;4.414;2024-02-04T14:08:06;12.60;;;1.98;;
26965;SDS011;14522;52.068;4.414;2024-02-04T14:10:33;12.38;;;1.70;;
26965;SDS011;14522;52.068;4.414;2024-02-04T14:12:59;11.05;;;1.85;;
26965;SDS011;14522;52.068;4.414;2024-02-04T14:15:26;10.48;;;1.80;;
26965;SDS011;14522;52.068;4.414;2024-02-04T14:17:52;9.35;;;1.65;;
26965;SDS011;14522;52.068;4.414;2024-02-04T14:20:18;10.75;;;1.75;;
26965;SDS011;14522;52.068;4.414;2024-02-04T14:22:45;9.55;;;2.10;;
26965;SDS011;14522;52.068;4.414;2024-02-04T14:25:12;10.18;;;2.03;;
26965;SDS011;14522;52.068;4.414;2024-02-04T14:27:39;9.27;;;1.58;;
26965;SDS011;14522;52.068;4.414;2024-02-04T14:30:05;6.88;;;1.45;;
26965;SDS011;14522;52.068;4.414;2024-02-04T14:32:33;9.13;;;1.73;;
26965;SDS011;14522;52.068;4.414;2024-02-04T14:34:59;11.30;;;2.55;;
26965;SDS011;14522;52.068;4.414;2024-02-04T14:37:26;8.98;;;1.75;;
26965;SDS011;14522;52.068;4.414;2024-02-04T14:39:52;11.68;;;2.00;;
26965;SDS011;14522;52.068;4.414;2024-02-04T14:42:19;11.95;;;1.67;;
26965;SDS011;14522;52.068;4.414;2024-02-04T14:44:45;18.25;;;2.00;;
26965;SDS011;14522;52.068;4.414;2024-02-04T14:47:12;11.05;;;1.83;;
26965;SDS011;14522;52.068;4.414;2024-02-04T14:49:38;12.23;;;1.92;;
26965;SDS011;14522;52.068;4.414;2024-02-04T14:52:05;17.40;;;2.20;;